sensor_id;sensor_type;location;lat;lon;timestamp;pressure;altitude;pressure_sealevel;temperature;humidity
24336;BME280;33098;52.400;16.880;2022-11-09T00:01:30;100482.30;;;9.87;97.66
24336;BME280;33098;52.400;16.880;2022-11-09T00:03:59;100485.77;;;9.91;97.65
24336;BME280;33098;52.400;16.880;2022-11-09T00:06:27;100491.36;;;9.94;97.63
24336;BME280;33098;52.400;16.880;2022-11-09T00:08:54;100491.30;;;9.90;97.41
24336;BME280;33098;52.400;16.880;2022-11-09T00:11:26;100495.02;;;9.86;97.47
24336;BME280;33098;52.400;16.880;2022-11-09T00:13:52;100493.23;;;9.81;97.37
24336;BME280;33098;52.400;16.880;2022-11-09T00:16:20;100495.20;;;9.86;97.57
24336;BME280;33098;52.400;16.880;2022-11-09T00:18:48;100493.71;;;9.82;97.40
24336;BME280;33098;52.400;16.880;2022-11-09T00:21:21;100494.99;;;9.74;97.33
24336;BME280;33098;52.400;16.880;2022-11-09T00:23:49;100494.16;;;9.78;97.65
24336;BME280;33098;52.400;16.880;2022-11-09T00:26:19;100490.60;;;9.83;97.75
24336;BME280;33098;52.400;16.880;2022-11-09T00:28:47;100490.46;;;9.90;97.92
24336;BME280;33098;52.400;16.880;2022-11-09T00:31:17;100499.97;;;9.91;97.76
24336;BME280;33098;52.400;16.880;2022-11-09T00:33:52;100498.77;;;9.90;97.63
24336;BME280;33098;52.400;16.880;2022-11-09T00:36:21;100493.38;;;9.87;97.61
24336;BME280;33098;52.400;16.880;2022-11-09T00:38:52;100496.08;;;9.81;97.37
24336;BME280;33098;52.400;16.880;2022-11-09T00:41:20;100493.23;;;9.81;97.40
24336;BME280;33098;52.400;16.880;2022-11-09T00:43:55;100493.19;;;9.89;97.84
24336;BME280;33098;52.400;16.880;2022-11-09T00:46:24;100497.33;;;9.95;97.82
24336;BME280;33098;52.400;16.880;2022-11-09T00:48:53;100494.24;;;9.91;97.50
24336;BME280;33098;52.400;16.880;2022-11-09T00:51:22;100489.73;;;9.87;97.36
24336;BME280;33098;52.400;16.880;2022-11-09T00:53:48;100490.71;;;9.91;97.60
24336;BME280;33098;52.400;16.880;2022-11-09T00:56:20;100485.92;;;9.93;97.48
24336;BME280;33098;52.400;16.880;2022-11-09T00:58:51;100489.05;;;9.94;97.36
24336;BME280;33098;52.400;16.880;2022-11-09T01:01:20;100491.04;;;9.91;97.28
24336;BME280;33098;52.400;16.880;2022-11-09T01:03:54;100494.30;;;9.93;97.33
24336;BME280;33098;52.400;16.880;2022-11-09T01:06:23;100493.50;;;10.02;97.52
24336;BME280;33098;52.400;16.880;2022-11-09T01:08:52;100492.92;;;10.02;97.26
24336;BME280;33098;52.400;16.880;2022-11-09T01:11:21;100497.61;;;10.03;97.17
24336;BME280;33098;52.400;16.880;2022-11-09T01:13:54;100495.05;;;10.02;97.01
24336;BME280;33098;52.400;16.880;2022-11-09T01:16:22;100480.92;;;9.96;96.77
24336;BME280;33098;52.400;16.880;2022-11-09T01:18:59;100478.17;;;9.97;96.89
24336;BME280;33098;52.400;16.880;2022-11-09T01:21:29;100479.66;;;9.94;96.71
24336;BME280;33098;52.400;16.880;2022-11-09T01:23:59;100482.59;;;9.93;96.80
24336;BME280;33098;52.400;16.880;2022-11-09T01:26:29;100468.89;;;9.96;96.94
24336;BME280;33098;52.400;16.880;2022-11-09T01:29:04;100474.08;;;10.03;96.97
24336;BME280;33098;52.400;16.880;2022-11-09T01:31:33;100470.16;;;10.03;96.80
24336;BME280;33098;52.400;16.880;2022-11-09T01:34:09;100472.52;;;10.02;96.53
24336;BME280;33098;52.400;16.880;2022-11-09T01:36:39;100466.48;;;9.98;96.30
24336;BME280;33098;52.400;16.880;2022-11-09T01:39:06;100466.09;;;9.98;96.44
24336;BME280;33098;52.400;16.880;2022-11-09T01:41:33;100463.14;;;10.04;96.66
24336;BME280;33098;52.400;16.880;2022-11-09T01:44:10;100467.24;;;10.04;96.44
24336;BME280;33098;52.400;16.880;2022-11-09T01:49:28;100462.83;;;10.04;96.15
24336;BME280;33098;52.400;16.880;2022-11-09T01:52:08;100470.33;;;9.98;95.91
24336;BME280;33098;52.400;16.880;2022-11-09T01:54:40;100462.11;;;9.96;95.99
24336;BME280;33098;52.400;16.880;2022-11-09T01:57:18;100464.37;;;9.95;96.01
24336;BME280;33098;52.400;16.880;2022-11-09T01:59:52;100457.80;;;9.97;96.01
24336;BME280;33098;52.400;16.880;2022-11-09T02:02:23;100458.06;;;9.98;96.02
24336;BME280;33098;52.400;16.880;2022-11-09T02:05:11;100452.52;;;9.97;95.78
24336;BME280;33098;52.400;16.880;2022-11-09T02:07:41;100455.96;;;9.98;95.97
24336;BME280;33098;52.400;16.880;2022-11-09T02:10:32;100459.95;;;10.07;96.11
24336;BME280;33098;52.400;16.880;2022-11-09T02:13:01;100456.68;;;10.05;95.76
24336;BME280;33098;52.400;16.880;2022-11-09T02:15:37;100460.80;;;10.03;95.69
24336;BME280;33098;52.400;16.880;2022-11-09T02:18:05;100462.83;;;10.04;95.56
24336;BME280;33098;52.400;16.880;2022-11-09T02:20:52;100468.05;;;10.00;95.33
24336;BME280;33098;52.400;16.880;2022-11-09T02:23:23;100468.14;;;9.94;95.14
24336;BME280;33098;52.400;16.880;2022-11-09T02:25:56;100468.11;;;9.88;95.11
24336;BME280;33098;52.400;16.880;2022-11-09T02:28:26;100468.33;;;9.85;95.09
24336;BME280;33098;52.400;16.880;2022-11-09T02:30:55;100467.41;;;9.78;95.00
24336;BME280;33098;52.400;16.880;2022-11-09T02:33:27;100465.27;;;9.76;95.04
24336;BME280;33098;52.400;16.880;2022-11-09T02:35:55;100463.09;;;9.69;95.10
24336;BME280;33098;52.400;16.880;2022-11-09T02:38:21;100460.80;;;9.69;95.13
24336;BME280;33098;52.400;16.880;2022-11-09T02:40:50;100457.67;;;9.71;95.27
24336;BME280;33098;52.400;16.880;2022-11-09T02:43:21;100454.20;;;9.72;95.41
24336;BME280;33098;52.400;16.880;2022-11-09T02:45:48;100454.66;;;9.71;95.26
24336;BME280;33098;52.400;16.880;2022-11-09T02:48:16;100454.42;;;9.69;95.32
24336;BME280;33098;52.400;16.880;2022-11-09T02:50:42;100454.81;;;9.74;95.65
24336;BME280;33098;52.400;16.880;2022-11-09T02:53:09;100456.02;;;9.76;95.61
24336;BME280;33098;52.400;16.880;2022-11-09T02:55:40;100453.91;;;9.78;95.64
24336;BME280;33098;52.400;16.880;2022-11-09T02:58:07;100450.12;;;9.86;95.80
24336;BME280;33098;52.400;16.880;2022-11-09T03:00:37;100456.29;;;9.87;95.60
24336;BME280;33098;52.400;16.880;2022-11-09T03:03:07;100457.16;;;9.87;95.47
24336;BME280;33098;52.400;16.880;2022-11-09T03:05:34;100457.54;;;9.89;95.36
24336;BME280;33098;52.400;16.880;2022-11-09T03:08:01;100455.45;;;9.91;95.29
24336;BME280;33098;52.400;16.880;2022-11-09T03:10:29;100456.37;;;9.88;95.05
24336;BME280;33098;52.400;16.880;2022-11-09T03:12:56;100453.90;;;9.81;94.89
24336;BME280;33098;52.400;16.880;2022-11-09T03:15:23;100454.66;;;9.83;95.02
24336;BME280;33098;52.400;16.880;2022-11-09T03:17:53;100454.80;;;9.83;94.95
24336;BME280;33098;52.400;16.880;2022-11-09T03:20:22;100454.53;;;9.79;94.93
24336;BME280;33098;52.400;16.880;2022-11-09T03:22:49;100455.10;;;9.81;95.20
24336;BME280;33098;52.400;16.880;2022-11-09T03:25:16;100452.86;;;9.88;95.18
24336;BME280;33098;52.400;16.880;2022-11-09T03:27:43;100453.52;;;9.89;95.03
24336;BME280;33098;52.400;16.880;2022-11-09T03:30:15;100446.56;;;9.91;95.13
24336;BME280;33098;52.400;16.880;2022-11-09T03:32:47;100444.70;;;9.95;95.06
24336;BME280;33098;52.400;16.880;2022-11-09T03:35:16;100442.15;;;9.95;94.94
24336;BME280;33098;52.400;16.880;2022-11-09T03:37:45;100442.11;;;9.98;94.83
24336;BME280;33098;52.400;16.880;2022-11-09T03:40:12;100446.91;;;9.98;94.76
24336;BME280;33098;52.400;16.880;2022-11-09T03:42:51;100449.81;;;10.00;94.63
24336;BME280;33098;52.400;16.880;2022-11-09T03:45:18;100450.88;;;9.95;94.49
24336;BME280;33098;52.400;16.880;2022-11-09T03:47:46;100453.11;;;9.93;94.49
24336;BME280;33098;52.400;16.880;2022-11-09T03:50:19;100447.48;;;9.95;94.52
24336;BME280;33098;52.400;16.880;2022-11-09T03:52:48;100440.48;;;9.94;94.38
24336;BME280;33098;52.400;16.880;2022-11-09T03:55:18;100434.27;;;9.92;94.23
24336;BME280;33098;52.400;16.880;2022-11-09T03:57:47;100433.54;;;9.92;94.31
24336;BME280;33098;52.400;16.880;2022-11-09T04:00:16;100433.40;;;9.94;94.47
24336;BME280;33098;52.400;16.880;2022-11-09T04:02:47;100439.46;;;9.91;94.24
24336;BME280;33098;52.400;16.880;2022-11-09T04:05:17;100436.55;;;9.81;94.03
24336;BME280;33098;52.400;16.880;2022-11-09T04:07:48;100437.59;;;9.81;94.42
24336;BME280;33098;52.400;16.880;2022-11-09T04:10:15;100430.84;;;9.86;94.49
24336;BME280;33098;52.400;16.880;2022-11-09T04:12:45;100432.03;;;9.79;94.27
24336;BME280;33098;52.400;16.880;2022-11-09T04:15:15;100432.73;;;9.73;93.95
24336;BME280;33098;52.400;16.880;2022-11-09T04:17:42;100429.23;;;9.68;94.13
24336;BME280;33098;52.400;16.880;2022-11-09T04:20:11;100427.98;;;9.70;94.36
24336;BME280;33098;52.400;16.880;2022-11-09T04:22:38;100427.48;;;9.76;94.72
24336;BME280;33098;52.400;16.880;2022-11-09T04:25:12;100423.02;;;9.84;94.73
24336;BME280;33098;52.400;16.880;2022-11-09T04:27:39;100421.86;;;9.85;94.60
24336;BME280;33098;52.400;16.880;2022-11-09T04:30:15;100421.59;;;9.82;94.35
24336;BME280;33098;52.400;16.880;2022-11-09T04:32:42;100417.67;;;9.75;94.12
24336;BME280;33098;52.400;16.880;2022-11-09T04:35:11;100419.80;;;9.72;94.20
24336;BME280;33098;52.400;16.880;2022-11-09T04:37:38;100422.59;;;9.78;94.43
24336;BME280;33098;52.400;16.880;2022-11-09T04:40:05;100421.81;;;9.83;94.60
24336;BME280;33098;52.400;16.880;2022-11-09T04:42:35;100419.02;;;9.90;94.61
24336;BME280;33098;52.400;16.880;2022-11-09T04:45:02;100421.30;;;9.90;94.39
24336;BME280;33098;52.400;16.880;2022-11-09T04:47:29;100426.04;;;9.79;93.81
24336;BME280;33098;52.400;16.880;2022-11-09T04:49:59;100427.81;;;9.70;93.78
24336;BME280;33098;52.400;16.880;2022-11-09T04:52:26;100422.95;;;9.68;94.07
24336;BME280;33098;52.400;16.880;2022-11-09T04:54:55;100417.07;;;9.71;94.25
24336;BME280;33098;52.400;16.880;2022-11-09T04:57:22;100412.87;;;9.73;94.41
24336;BME280;33098;52.400;16.880;2022-11-09T04:59:49;100411.00;;;9.79;94.61
24336;BME280;33098;52.400;16.880;2022-11-09T05:02:15;100408.64;;;9.79;94.45
24336;BME280;33098;52.400;16.880;2022-11-09T05:04:42;100410.36;;;9.78;94.21
24336;BME280;33098;52.400;16.880;2022-11-09T05:07:09;100402.48;;;9.74;94.24
24336;BME280;33098;52.400;16.880;2022-11-09T05:09:36;100406.86;;;9.70;94.01
24336;BME280;33098;52.400;16.880;2022-11-09T05:12:03;100409.38;;;9.68;94.09
24336;BME280;33098;52.400;16.880;2022-11-09T05:14:32;100413.58;;;9.70;94.24
24336;BME280;33098;52.400;16.880;2022-11-09T05:16:59;100412.31;;;9.66;94.10
24336;BME280;33098;52.400;16.880;2022-11-09T05:19:28;100415.40;;;9.64;94.03
24336;BME280;33098;52.400;16.880;2022-11-09T05:21:55;100417.46;;;9.58;93.93
24336;BME280;33098;52.400;16.880;2022-11-09T05:24:24;100411.01;;;9.59;94.21
24336;BME280;33098;52.400;16.880;2022-11-09T05:26:51;100410.59;;;9.58;94.16
24336;BME280;33098;52.400;16.880;2022-11-09T05:29:24;100409.10;;;9.59;94.33
24336;BME280;33098;52.400;16.880;2022-11-09T05:31:50;100419.02;;;9.57;94.26
24336;BME280;33098;52.400;16.880;2022-11-09T05:34:18;100421.83;;;9.50;94.03
24336;BME280;33098;52.400;16.880;2022-11-09T05:36:48;100419.02;;;9.42;94.20
24336;BME280;33098;52.400;16.880;2022-11-09T05:39:17;100420.05;;;9.36;94.14
24336;BME280;33098;52.400;16.880;2022-11-09T05:41:44;100421.11;;;9.36;94.43
24336;BME280;33098;52.400;16.880;2022-11-09T05:44:11;100416.73;;;9.32;94.51
24336;BME280;33098;52.400;16.880;2022-11-09T05:46:37;100416.14;;;9.31;94.58
24336;BME280;33098;52.400;16.880;2022-11-09T05:49:06;100419.91;;;9.30;94.73
24336;BME280;33098;52.400;16.880;2022-11-09T05:51:36;100415.90;;;9.34;95.06
24336;BME280;33098;52.400;16.880;2022-11-09T05:54:06;100413.23;;;9.39;95.18
24336;BME280;33098;52.400;16.880;2022-11-09T05:56:33;100415.52;;;9.44;95.36
24336;BME280;33098;52.400;16.880;2022-11-09T05:59:00;100415.88;;;9.44;95.27
24336;BME280;33098;52.400;16.880;2022-11-09T06:01:27;100408.80;;;9.44;95.31
24336;BME280;33098;52.400;16.880;2022-11-09T06:03:56;100407.85;;;9.50;95.49
24336;BME280;33098;52.400;16.880;2022-11-09T06:17:20;100416.62;;;9.41;95.34
24336;BME280;33098;52.400;16.880;2022-11-09T06:19:47;100415.58;;;9.41;95.34
24336;BME280;33098;52.400;16.880;2022-11-09T06:22:13;100414.05;;;9.38;95.39
24336;BME280;33098;52.400;16.880;2022-11-09T06:24:40;100414.52;;;9.39;95.54
24336;BME280;33098;52.400;16.880;2022-11-09T06:27:09;100417.94;;;9.38;95.62
24336;BME280;33098;52.400;16.880;2022-11-09T06:29:36;100413.82;;;9.41;95.91
24336;BME280;33098;52.400;16.880;2022-11-09T06:32:02;100419.90;;;9.52;96.28
24336;BME280;33098;52.400;16.880;2022-11-09T06:34:29;100421.46;;;9.59;96.29
24336;BME280;33098;52.400;16.880;2022-11-09T06:36:56;100422.66;;;9.60;96.20
24336;BME280;33098;52.400;16.880;2022-11-09T06:39:23;100424.41;;;9.65;96.35
24336;BME280;33098;52.400;16.880;2022-11-09T06:41:49;100431.22;;;9.67;96.17
24336;BME280;33098;52.400;16.880;2022-11-09T06:44:18;100440.99;;;9.66;96.16
24336;BME280;33098;52.400;16.880;2022-11-09T06:46:45;100446.46;;;9.67;96.13
24336;BME280;33098;52.400;16.880;2022-11-09T06:49:17;100451.59;;;9.62;95.97
24336;BME280;33098;52.400;16.880;2022-11-09T06:51:44;100447.22;;;9.59;96.01
24336;BME280;33098;52.400;16.880;2022-11-09T06:54:11;100448.36;;;9.58;95.99
24336;BME280;33098;52.400;16.880;2022-11-09T06:56:38;100449.81;;;9.59;96.27
24336;BME280;33098;52.400;16.880;2022-11-09T06:59:10;100449.52;;;9.63;96.38
24336;BME280;33098;52.400;16.880;2022-11-09T07:01:37;100449.86;;;9.64;96.45
24336;BME280;33098;52.400;16.880;2022-11-09T07:04:03;100447.21;;;9.63;96.48
24336;BME280;33098;52.400;16.880;2022-11-09T07:06:30;100447.66;;;9.62;96.60
24336;BME280;33098;52.400;16.880;2022-11-09T07:08:57;100453.86;;;9.65;96.79
24336;BME280;33098;52.400;16.880;2022-11-09T07:11:24;100455.45;;;9.67;96.83
24336;BME280;33098;52.400;16.880;2022-11-09T07:13:50;100457.63;;;9.69;96.97
24336;BME280;33098;52.400;16.880;2022-11-09T07:16:17;100461.03;;;9.73;97.04
24336;BME280;33098;52.400;16.880;2022-11-09T07:18:44;100462.36;;;9.81;97.34
24336;BME280;33098;52.400;16.880;2022-11-09T07:21:12;100459.08;;;9.94;97.67
24336;BME280;33098;52.400;16.880;2022-11-09T07:23:39;100461.50;;;10.07;97.68
24336;BME280;33098;52.400;16.880;2022-11-09T07:26:13;100468.25;;;10.19;97.74
24336;BME280;33098;52.400;16.880;2022-11-09T07:28:40;100462.05;;;10.30;97.69
24336;BME280;33098;52.400;16.880;2022-11-09T07:31:09;100462.42;;;10.37;97.51
24336;BME280;33098;52.400;16.880;2022-11-09T07:33:36;100459.36;;;10.45;97.42
24336;BME280;33098;52.400;16.880;2022-11-09T07:36:04;100459.34;;;10.54;97.54
24336;BME280;33098;52.400;16.880;2022-11-09T07:38:31;100458.23;;;10.59;97.11
24336;BME280;33098;52.400;16.880;2022-11-09T07:40:59;100446.30;;;10.64;97.05
24336;BME280;33098;52.400;16.880;2022-11-09T07:43:26;100447.08;;;10.77;97.08
24336;BME280;33098;52.400;16.880;2022-11-09T07:45:55;100451.72;;;10.81;96.66
24336;BME280;33098;52.400;16.880;2022-11-09T07:48:22;100453.54;;;10.81;96.37
24336;BME280;33098;52.400;16.880;2022-11-09T07:50:49;100452.90;;;10.84;96.28
24336;BME280;33098;52.400;16.880;2022-11-09T07:53:19;100448.09;;;10.91;96.38
24336;BME280;33098;52.400;16.880;2022-11-09T07:55:55;100445.16;;;10.99;96.23
24336;BME280;33098;52.400;16.880;2022-11-09T07:58:22;100447.38;;;11.05;96.22
24336;BME280;33098;52.400;16.880;2022-11-09T08:00:51;100443.58;;;11.14;96.19
24336;BME280;33098;52.400;16.880;2022-11-09T08:03:19;100439.59;;;11.22;95.98
24336;BME280;33098;52.400;16.880;2022-11-09T08:05:47;100444.90;;;11.28;95.72
24336;BME280;33098;52.400;16.880;2022-11-09T08:08:17;100436.58;;;11.35;95.60
24336;BME280;33098;52.400;16.880;2022-11-09T08:10:44;100440.80;;;11.42;95.58
24336;BME280;33098;52.400;16.880;2022-11-09T08:13:18;100443.48;;;11.48;95.28
24336;BME280;33098;52.400;16.880;2022-11-09T08:15:45;100445.46;;;11.57;95.19
24336;BME280;33098;52.400;16.880;2022-11-09T08:18:15;100451.26;;;11.57;94.85
24336;BME280;33098;52.400;16.880;2022-11-09T08:20:43;100450.89;;;11.64;94.82
24336;BME280;33098;52.400;16.880;2022-11-09T08:23:14;100445.27;;;11.68;94.47
24336;BME280;33098;52.400;16.880;2022-11-09T08:25:42;100446.70;;;11.63;94.00
24336;BME280;33098;52.400;16.880;2022-11-09T08:28:12;100450.45;;;11.59;93.73
24336;BME280;33098;52.400;16.880;2022-11-09T08:30:38;100452.98;;;11.56;93.66
24336;BME280;33098;52.400;16.880;2022-11-09T08:33:08;100456.61;;;11.57;93.52
24336;BME280;33098;52.400;16.880;2022-11-09T08:35:42;100456.70;;;11.58;93.27
24336;BME280;33098;52.400;16.880;2022-11-09T08:38:11;100455.20;;;11.64;93.43
24336;BME280;33098;52.400;16.880;2022-11-09T08:40:40;100453.67;;;11.67;92.99
24336;BME280;33098;52.400;16.880;2022-11-09T08:43:07;100455.66;;;11.71;92.92
24336;BME280;33098;52.400;16.880;2022-11-09T08:45:38;100455.32;;;11.81;92.99
24336;BME280;33098;52.400;16.880;2022-11-09T08:48:07;100459.38;;;11.90;92.76
24336;BME280;33098;52.400;16.880;2022-11-09T08:50:36;100462.16;;;12.00;92.39
24336;BME280;33098;52.400;16.880;2022-11-09T08:53:03;100468.66;;;12.01;91.49
24336;BME280;33098;52.400;16.880;2022-11-09T08:55:31;100465.66;;;12.01;91.05
24336;BME280;33098;52.400;16.880;2022-11-09T08:57:59;100469.81;;;12.02;90.77
24336;BME280;33098;52.400;16.880;2022-11-09T09:00:26;100475.20;;;12.06;90.67
24336;BME280;33098;52.400;16.880;2022-11-09T09:03:04;100468.68;;;12.11;90.49
24336;BME280;33098;52.400;16.880;2022-11-09T09:05:33;100467.85;;;12.15;90.22
24336;BME280;33098;52.400;16.880;2022-11-09T09:08:03;100466.86;;;12.20;90.24
24336;BME280;33098;52.400;16.880;2022-11-09T09:10:33;100453.64;;;12.29;90.17
24336;BME280;33098;52.400;16.880;2022-11-09T09:13:10;100460.14;;;12.31;89.09
24336;BME280;33098;52.400;16.880;2022-11-09T09:15:37;100464.29;;;12.28;88.75
24336;BME280;33098;52.400;16.880;2022-11-09T09:18:04;100465.09;;;12.26;88.25
24336;BME280;33098;52.400;16.880;2022-11-09T09:20:31;100466.38;;;12.26;88.05
24336;BME280;33098;52.400;16.880;2022-11-09T09:22:59;100468.75;;;12.28;88.07
24336;BME280;33098;52.400;16.880;2022-11-09T09:25:29;100479.15;;;12.33;87.98
24336;BME280;33098;52.400;16.880;2022-11-09T09:27:56;100486.95;;;12.37;88.09
24336;BME280;33098;52.400;16.880;2022-11-09T09:30:23;100488.92;;;12.41;87.70
24336;BME280;33098;52.400;16.880;2022-11-09T09:32:50;100482.61;;;12.44;87.64
24336;BME280;33098;52.400;16.880;2022-11-09T09:35:16;100484.48;;;12.47;87.21
24336;BME280;33098;52.400;16.880;2022-11-09T09:37:43;100482.30;;;12.44;86.78
24336;BME280;33098;52.400;16.880;2022-11-09T09:40:41;100477.58;;;12.45;86.87
24336;BME280;33098;52.400;16.880;2022-11-09T09:43:24;100480.75;;;12.52;86.71
24336;BME280;33098;52.400;16.880;2022-11-09T09:45:54;100479.50;;;12.55;86.86
24336;BME280;33098;52.400;16.880;2022-11-09T09:48:30;100485.43;;;12.61;86.89
24336;BME280;33098;52.400;16.880;2022-11-09T09:51:09;100482.56;;;12.64;86.38
24336;BME280;33098;52.400;16.880;2022-11-09T09:53:48;100485.71;;;12.60;85.99
24336;BME280;33098;52.400;16.880;2022-11-09T09:56:33;100490.07;;;12.55;85.66
24336;BME280;33098;52.400;16.880;2022-11-09T09:59:08;100486.66;;;12.53;85.78
24336;BME280;33098;52.400;16.880;2022-11-09T10:01:40;100481.83;;;12.51;85.38
24336;BME280;33098;52.400;16.880;2022-11-09T10:04:35;100486.11;;;12.51;85.58
24336;BME280;33098;52.400;16.880;2022-11-09T10:09:55;100487.62;;;12.54;85.53
24336;BME280;33098;52.400;16.880;2022-11-09T10:15:30;100499.05;;;12.58;85.22
24336;BME280;33098;52.400;16.880;2022-11-09T10:18:33;100500.59;;;12.61;85.12
24336;BME280;33098;52.400;16.880;2022-11-09T10:21:35;100504.58;;;12.66;85.22
24336;BME280;33098;52.400;16.880;2022-11-09T10:24:16;100502.23;;;12.73;84.96
24336;BME280;33098;52.400;16.880;2022-11-09T10:26:51;100493.47;;;12.81;84.80
24336;BME280;33098;52.400;16.880;2022-11-09T10:29:35;100502.46;;;12.86;84.49
24336;BME280;33098;52.400;16.880;2022-11-09T10:32:14;100505.52;;;12.92;84.36
24336;BME280;33098;52.400;16.880;2022-11-09T10:35:20;100509.85;;;13.02;84.77
24336;BME280;33098;52.400;16.880;2022-11-09T10:37:50;100515.03;;;13.18;84.94
24336;BME280;33098;52.400;16.880;2022-11-09T10:43:18;100519.38;;;13.30;84.21
24336;BME280;33098;52.400;16.880;2022-11-09T10:46:05;100514.99;;;13.41;84.24
24336;BME280;33098;52.400;16.880;2022-11-09T10:48:54;100523.23;;;13.53;84.02
24336;BME280;33098;52.400;16.880;2022-11-09T10:51:41;100524.96;;;13.65;83.01
24336;BME280;33098;52.400;16.880;2022-11-09T10:54:36;100515.52;;;13.75;83.11
24336;BME280;33098;52.400;16.880;2022-11-09T10:57:23;100512.78;;;13.83;82.70
24336;BME280;33098;52.400;16.880;2022-11-09T11:00:19;100514.90;;;13.90;82.91
24336;BME280;33098;52.400;16.880;2022-11-09T11:03:14;100512.17;;;13.88;81.92
24336;BME280;33098;52.400;16.880;2022-11-09T11:12:16;100513.20;;;13.85;81.09
24336;BME280;33098;52.400;16.880;2022-11-09T11:18:18;100512.34;;;13.85;81.03
24336;BME280;33098;52.400;16.880;2022-11-09T11:21:05;100509.94;;;13.80;79.35
24336;BME280;33098;52.400;16.880;2022-11-09T11:24:12;100505.20;;;13.73;79.88
24336;BME280;33098;52.400;16.880;2022-11-09T11:27:04;100505.34;;;13.69;79.83
24336;BME280;33098;52.400;16.880;2022-11-09T11:32:40;100500.16;;;13.79;80.34
24336;BME280;33098;52.400;16.880;2022-11-09T11:35:37;100497.23;;;13.84;80.56
24336;BME280;33098;52.400;16.880;2022-11-09T11:38:36;100504.81;;;13.89;80.30
24336;BME280;33098;52.400;16.880;2022-11-09T11:41:37;100500.92;;;13.84;79.97
24336;BME280;33098;52.400;16.880;2022-11-09T11:44:49;100501.91;;;13.89;79.91
24336;BME280;33098;52.400;16.880;2022-11-09T11:48:07;100502.53;;;13.86;79.76
24336;BME280;33098;52.400;16.880;2022-11-09T11:51:08;100500.95;;;13.90;80.03
24336;BME280;33098;52.400;16.880;2022-11-09T11:54:06;100492.73;;;13.98;80.01
24336;BME280;33098;52.400;16.880;2022-11-09T11:57:31;100490.30;;;14.03;79.77
24336;BME280;33098;52.400;16.880;2022-11-09T12:00:21;100484.95;;;14.05;79.21
24336;BME280;33098;52.400;16.880;2022-11-09T12:03:48;100484.83;;;14.07;78.32
24336;BME280;33098;52.400;16.880;2022-11-09T12:06:51;100489.27;;;14.07;78.40
24336;BME280;33098;52.400;16.880;2022-11-09T12:15:38;100483.08;;;14.35;78.72
24336;BME280;33098;52.400;16.880;2022-11-09T12:19:01;100478.50;;;14.36;78.04
24336;BME280;33098;52.400;16.880;2022-11-09T12:22:15;100475.46;;;14.38;77.80
24336;BME280;33098;52.400;16.880;2022-11-09T12:34:02;100480.30;;;14.45;77.49
24336;BME280;33098;52.400;16.880;2022-11-09T12:36:54;100477.42;;;14.46;77.06
24336;BME280;33098;52.400;16.880;2022-11-09T12:40:23;100468.43;;;14.45;76.72
24336;BME280;33098;52.400;16.880;2022-11-09T12:46:06;100477.48;;;14.45;77.46
24336;BME280;33098;52.400;16.880;2022-11-09T12:48:55;100471.65;;;14.46;77.58
24336;BME280;33098;52.400;16.880;2022-11-09T12:51:46;100462.95;;;14.48;77.88
24336;BME280;33098;52.400;16.880;2022-11-09T12:54:38;100447.07;;;14.48;77.86
24336;BME280;33098;52.400;16.880;2022-11-09T12:57:28;100446.44;;;14.45;77.81
24336;BME280;33098;52.400;16.880;2022-11-09T13:03:32;100464.94;;;14.23;77.85
24336;BME280;33098;52.400;16.880;2022-11-09T13:06:22;100477.83;;;14.13;78.47
24336;BME280;33098;52.400;16.880;2022-11-09T13:12:35;100476.77;;;13.99;79.43
24336;BME280;33098;52.400;16.880;2022-11-09T13:15:25;100481.30;;;13.95;79.87
24336;BME280;33098;52.400;16.880;2022-11-09T13:18:45;100478.09;;;13.88;80.29
24336;BME280;33098;52.400;16.880;2022-11-09T13:21:32;100480.14;;;13.84;80.98
24336;BME280;33098;52.400;16.880;2022-11-09T13:27:37;100475.67;;;13.82;81.73
24336;BME280;33098;52.400;16.880;2022-11-09T13:33:19;100450.71;;;13.76;81.83
24336;BME280;33098;52.400;16.880;2022-11-09T13:39:28;100456.92;;;13.70;82.00
24336;BME280;33098;52.400;16.880;2022-11-09T13:42:35;100464.69;;;13.64;81.96
24336;BME280;33098;52.400;16.880;2022-11-09T13:48:41;100461.98;;;13.50;82.22
24336;BME280;33098;52.400;16.880;2022-11-09T13:54:29;100468.16;;;13.49;82.79
24336;BME280;33098;52.400;16.880;2022-11-09T13:57:16;100485.76;;;13.45;82.90
24336;BME280;33098;52.400;16.880;2022-11-09T14:00:04;100492.98;;;13.42;83.13
24336;BME280;33098;52.400;16.880;2022-11-09T14:03:03;100498.08;;;13.45;83.45
24336;BME280;33098;52.400;16.880;2022-11-09T14:06:00;100492.77;;;13.52;83.74
24336;BME280;33098;52.400;16.880;2022-11-09T14:08:46;100496.85;;;13.56;83.87
24336;BME280;33098;52.400;16.880;2022-11-09T14:15:08;100476.70;;;13.61;83.88
24336;BME280;33098;52.400;16.880;2022-11-09T14:27:24;100491.05;;;13.52;83.96
24336;BME280;33098;52.400;16.880;2022-11-09T14:30:19;100491.22;;;13.46;83.77
24336;BME280;33098;52.400;16.880;2022-11-09T14:33:24;100484.45;;;13.46;83.99
24336;BME280;33098;52.400;16.880;2022-11-09T14:36:10;100491.14;;;13.49;84.11
24336;BME280;33098;52.400;16.880;2022-11-09T14:39:00;100491.04;;;13.44;83.71
24336;BME280;33098;52.400;16.880;2022-11-09T14:41:47;100491.39;;;13.38;83.71
24336;BME280;33098;52.400;16.880;2022-11-09T14:44:36;100494.34;;;13.37;83.93
24336;BME280;33098;52.400;16.880;2022-11-09T14:47:29;100493.54;;;13.42;84.06
24336;BME280;33098;52.400;16.880;2022-11-09T14:50:38;100493.76;;;13.37;83.91
24336;BME280;33098;52.400;16.880;2022-11-09T14:53:28;100499.73;;;13.36;84.02
24336;BME280;33098;52.400;16.880;2022-11-09T14:56:17;100501.42;;;13.35;84.03